• Join FlightAware (Why Join?)
  • Login
  • US Flag 
08:01AM EDT


 

Airport Tracker/Info


-or-


 

Live Flight TrackerFlight Track Log ✈ N534QS ✈ 14-May-2013 ✈ KLGA - KTTN

Flight Track Log - Related Links

Times and Time Zones

All times are in EDT time to prevent confusion due to time zone crossing. See the N534QS flight status page for this flight to view local times or setup timezone preferences in your user account.

Time Position Orientation Groundspeed Altitude Reporting Facility
EDT Latitude Longitude Course Direction KTS MPH feet Rate Location/Type
06:37PM 40.8333 -73.9000 235° Southwest 198 228 4,300  Level New York TRACON
06:38PM 40.8833 -73.9333 333° Northwest 259 298 7,500 1,920 Climbing New York TRACON
06:38PM 40.9333 -74.0000 315° West 264 304 8,000 240 Climbing New York TRACON
06:39PM 40.9667 -74.0833 298° West 260 299 8,000  Level New York TRACON
06:40PM 41.0167 -74.1500 315° West 248 285 8,000  Level New York TRACON
06:41PM 41.0333 -74.2333 285° West 254 292 8,000  Level New York TRACON
06:42PM 40.6949 -74.0294 235° Southwest  Level Estimated
06:42PM 41.0500 -74.3167 285° West 249 287 8,000  Level New York TRACON
06:43PM 41.0333 -74.4333 259° West 264 304 8,000  Level New York TRACON
06:44PM 41.0000 -74.5000 236° Southwest 265 305 8,000  Level New York TRACON
06:45PM 40.9333 -74.5333 201° Southwest 277 319 8,000 -420 Level New York TRACON
06:46PM 40.8667 -74.5833 210° Southwest 277 319 7,300 -480 Descending New York TRACON
06:47PM 40.7833 -74.6167 197° South 270 311 7,000 -360 Descending New York TRACON
06:48PM 40.7167 -74.6500 201° Southwest 270 311 6,600 -840 Descending New York TRACON
06:51PM 40.5500 -74.7500 205° Southwest 213 245 4,000 -960 Descending Philadelphia TRACON
06:52PM 40.4833 -74.7500 180° South 226 260 3,300 -600 Descending Philadelphia TRACON
06:53PM 40.4333 -74.7500 180° South 213 245 2,900 -540 Descending Philadelphia TRACON
06:54PM 40.3833 -74.7333 166° South 203 234 2,300 -600 Descending Philadelphia TRACON
06:55PM 40.3333 -74.7333 180° South 157 181 1,800 -720 Descending Philadelphia TRACON
06:56PM 40.3000 -74.7667 217° Southwest 124 143 900 -900 Descending Philadelphia TRACON
06:58PM 40.2767 -74.8135 75° East  Level Estimated
07:05PM 40.2767 -74.8135 75° East  Level Estimated